sensor_id;sensor_type;location;lat;lon;timestamp;pressure;altitude;pressure_sealevel;temperature;humidity
41703;BME280;861;48.808;9.006;2024-03-08T00:00:12;96973.63;;;6.55;71.48
41703;BME280;861;48.808;9.006;2024-03-08T00:02:40;96973.13;;;6.50;71.62
41703;BME280;861;48.808;9.006;2024-03-08T00:05:15;96970.13;;;6.55;71.01
41703;BME280;861;48.808;9.006;2024-03-08T00:07:42;96968.59;;;6.57;70.96
41703;BME280;861;48.808;9.006;2024-03-08T00:10:12;96962.41;;;6.34;72.07
41703;BME280;861;48.808;9.006;2024-03-08T00:12:41;96963.16;;;6.12;72.19
41703;BME280;861;48.808;9.006;2024-03-08T00:15:15;96965.78;;;6.28;72.00
41703;BME280;861;48.808;9.006;2024-03-08T00:17:45;96958.19;;;6.14;72.59
41703;BME280;861;48.808;9.006;2024-03-08T00:20:12;96958.66;;;6.19;71.87
41703;BME280;861;48.808;9.006;2024-03-08T00:22:39;96959.53;;;6.23;71.60
41703;BME280;861;48.808;9.006;2024-03-08T00:25:08;96967.28;;;6.25;71.73
41703;BME280;861;48.808;9.006;2024-03-08T00:27:39;96961.69;;;6.37;71.75
41703;BME280;861;48.808;9.006;2024-03-08T00:30:06;96956.09;;;6.27;71.72
41703;BME280;861;48.808;9.006;2024-03-08T00:32:34;96959.81;;;6.18;72.38
41703;BME280;861;48.808;9.006;2024-03-08T00:35:00;96949.19;;;6.29;71.62
41703;BME280;861;48.808;9.006;2024-03-08T00:37:27;96957.03;;;6.15;72.59
41703;BME280;861;48.808;9.006;2024-03-08T00:39:54;96950.88;;;6.14;72.43
41703;BME280;861;48.808;9.006;2024-03-08T00:42:21;96944.28;;;6.35;71.15
41703;BME280;861;48.808;9.006;2024-03-08T00:44:48;96939.09;;;6.26;71.51
41703;BME280;861;48.808;9.006;2024-03-08T00:47:17;96934.22;;;6.35;70.86
41703;BME280;861;48.808;9.006;2024-03-08T00:49:44;96936.47;;;6.30;71.13
41703;BME280;861;48.808;9.006;2024-03-08T00:52:11;96935.63;;;6.26;71.67
41703;BME280;861;48.808;9.006;2024-03-08T00:54:37;96939.59;;;6.32;70.63
41703;BME280;861;48.808;9.006;2024-03-08T00:57:04;96935.38;;;6.34;71.51
41703;BME280;861;48.808;9.006;2024-03-08T00:59:33;96935.28;;;6.27;70.37
41703;BME280;861;48.808;9.006;2024-03-08T01:02:02;96927.91;;;6.28;70.75
41703;BME280;861;48.808;9.006;2024-03-08T01:04:29;96932.31;;;6.36;71.10
41703;BME280;861;48.808;9.006;2024-03-08T01:06:59;96923.41;;;6.35;70.61
41703;BME280;861;48.808;9.006;2024-03-08T01:09:27;96923.50;;;6.16;70.87
41703;BME280;861;48.808;9.006;2024-03-08T01:11:55;96922.03;;;6.22;71.27
41703;BME280;861;48.808;9.006;2024-03-08T01:14:24;96913.75;;;6.34;70.57
41703;BME280;861;48.808;9.006;2024-03-08T01:16:56;96907.00;;;6.24;70.64
41703;BME280;861;48.808;9.006;2024-03-08T01:19:22;96909.06;;;6.31;70.36
41703;BME280;861;48.808;9.006;2024-03-08T01:21:50;96904.75;;;6.27;70.82
41703;BME280;861;48.808;9.006;2024-03-08T01:24:17;96901.69;;;6.28;70.92
41703;BME280;861;48.808;9.006;2024-03-08T01:26:44;96903.59;;;6.28;70.72
41703;BME280;861;48.808;9.006;2024-03-08T01:29:11;96894.75;;;6.31;69.88
41703;BME280;861;48.808;9.006;2024-03-08T01:31:37;96891.34;;;6.11;70.98
41703;BME280;861;48.808;9.006;2024-03-08T01:34:04;96895.78;;;5.81;70.97
41703;BME280;861;48.808;9.006;2024-03-08T01:36:31;96890.22;;;5.93;70.91
41703;BME280;861;48.808;9.006;2024-03-08T01:38:57;96883.09;;;6.04;70.27
41703;BME280;861;48.808;9.006;2024-03-08T01:41:24;96882.56;;;5.76;71.71
41703;BME280;861;48.808;9.006;2024-03-08T01:43:50;96880.28;;;5.78;71.63
41703;BME280;861;48.808;9.006;2024-03-08T01:46:22;96875.34;;;5.61;71.87
41703;BME280;861;48.808;9.006;2024-03-08T01:48:50;96871.31;;;5.74;71.46
41703;BME280;861;48.808;9.006;2024-03-08T01:51:17;96871.56;;;5.84;70.56
41703;BME280;861;48.808;9.006;2024-03-08T01:53:47;96867.00;;;5.88;70.96
41703;BME280;861;48.808;9.006;2024-03-08T01:56:15;96863.56;;;5.91;70.11
41703;BME280;861;48.808;9.006;2024-03-08T01:58:44;96859.88;;;5.80;70.85
41703;BME280;861;48.808;9.006;2024-03-08T02:01:14;96857.25;;;5.65;71.20
41703;BME280;861;48.808;9.006;2024-03-08T02:03:41;96845.56;;;5.57;71.21
41703;BME280;861;48.808;9.006;2024-03-08T02:06:13;96845.13;;;5.17;72.61
41703;BME280;861;48.808;9.006;2024-03-08T02:08:47;96839.63;;;5.29;72.37
41703;BME280;861;48.808;9.006;2024-03-08T02:11:14;96835.59;;;5.42;72.00
41703;BME280;861;48.808;9.006;2024-03-08T02:13:43;96829.66;;;5.14;72.82
41703;BME280;861;48.808;9.006;2024-03-08T02:16:10;96831.16;;;5.12;73.19
41703;BME280;861;48.808;9.006;2024-03-08T02:18:37;96824.63;;;5.13;73.09
41703;BME280;861;48.808;9.006;2024-03-08T02:21:07;96826.75;;;5.23;72.74
41703;BME280;861;48.808;9.006;2024-03-08T02:23:34;96826.94;;;4.95;73.42
41703;BME280;861;48.808;9.006;2024-03-08T02:26:01;96820.78;;;4.95;73.47
41703;BME280;861;48.808;9.006;2024-03-08T02:28:28;96818.84;;;4.95;73.73
41703;BME280;861;48.808;9.006;2024-03-08T02:30:55;96823.41;;;4.91;73.77
41703;BME280;861;48.808;9.006;2024-03-08T02:33:25;96818.22;;;5.02;73.56
41703;BME280;861;48.808;9.006;2024-03-08T02:35:53;96819.72;;;4.99;73.83
41703;BME280;861;48.808;9.006;2024-03-08T02:38:22;96815.44;;;4.98;73.51
41703;BME280;861;48.808;9.006;2024-03-08T02:40:52;96800.59;;;5.08;73.22
41703;BME280;861;48.808;9.006;2024-03-08T02:43:22;96799.78;;;5.04;73.12
41703;BME280;861;48.808;9.006;2024-03-08T02:45:49;96803.88;;;4.98;73.32
41703;BME280;861;48.808;9.006;2024-03-08T02:48:16;96806.16;;;4.96;73.55
41703;BME280;861;48.808;9.006;2024-03-08T02:50:43;96795.84;;;5.01;73.38
41703;BME280;861;48.808;9.006;2024-03-08T02:53:11;96797.19;;;5.11;72.95
41703;BME280;861;48.808;9.006;2024-03-08T02:55:40;96786.75;;;5.09;72.46
41703;BME280;861;48.808;9.006;2024-03-08T02:58:08;96796.78;;;5.09;72.41
41703;BME280;861;48.808;9.006;2024-03-08T03:00:37;96797.06;;;5.04;72.63
41703;BME280;861;48.808;9.006;2024-03-08T03:03:05;96797.72;;;5.16;71.69
41703;BME280;861;48.808;9.006;2024-03-08T03:05:33;96788.13;;;5.00;72.16
41703;BME280;861;48.808;9.006;2024-03-08T03:08:02;96787.06;;;4.85;72.64
41703;BME280;861;48.808;9.006;2024-03-08T03:10:35;96790.41;;;4.98;72.49
41703;BME280;861;48.808;9.006;2024-03-08T03:13:02;96788.19;;;4.84;72.87
41703;BME280;861;48.808;9.006;2024-03-08T03:15:30;96784.06;;;5.09;71.75
41703;BME280;861;48.808;9.006;2024-03-08T03:17:57;96786.63;;;5.02;71.98
41703;BME280;861;48.808;9.006;2024-03-08T03:20:23;96782.94;;;5.29;71.21
41703;BME280;861;48.808;9.006;2024-03-08T03:22:53;96780.72;;;5.16;71.44
41703;BME280;861;48.808;9.006;2024-03-08T03:25:21;96784.22;;;5.16;71.54
41703;BME280;861;48.808;9.006;2024-03-08T03:27:52;96780.97;;;5.07;71.11
41703;BME280;861;48.808;9.006;2024-03-08T03:30:19;96779.44;;;4.71;72.47
41703;BME280;861;48.808;9.006;2024-03-08T03:32:49;96764.06;;;4.91;72.26
41703;BME280;861;48.808;9.006;2024-03-08T03:35:23;96764.97;;;4.99;71.52
41703;BME280;861;48.808;9.006;2024-03-08T03:37:50;96764.50;;;4.74;72.11
41703;BME280;861;48.808;9.006;2024-03-08T03:40:38;96756.59;;;4.65;72.13
41703;BME280;861;48.808;9.006;2024-03-08T03:43:06;96761.50;;;4.98;71.35
41703;BME280;861;48.808;9.006;2024-03-08T03:45:33;96752.28;;;4.99;71.36
41703;BME280;861;48.808;9.006;2024-03-08T03:48:07;96759.81;;;4.71;72.34
41703;BME280;861;48.808;9.006;2024-03-08T03:50:37;96745.25;;;4.76;72.33
41703;BME280;861;48.808;9.006;2024-03-08T03:53:05;96758.78;;;4.79;72.04
41703;BME280;861;48.808;9.006;2024-03-08T03:55:35;96755.47;;;4.86;71.63
41703;BME280;861;48.808;9.006;2024-03-08T03:58:05;96757.59;;;4.96;71.13
41703;BME280;861;48.808;9.006;2024-03-08T04:00:32;96760.22;;;4.92;71.23
41703;BME280;861;48.808;9.006;2024-03-08T04:02:59;96756.81;;;4.95;70.82
41703;BME280;861;48.808;9.006;2024-03-08T04:05:27;96753.72;;;4.93;70.79
41703;BME280;861;48.808;9.006;2024-03-08T04:07:53;96754.06;;;4.92;70.82
41703;BME280;861;48.808;9.006;2024-03-08T04:10:20;96752.69;;;4.63;71.83
41703;BME280;861;48.808;9.006;2024-03-08T04:12:47;96750.56;;;4.91;70.89
41703;BME280;861;48.808;9.006;2024-03-08T04:15:14;96738.91;;;4.68;71.38
41703;BME280;861;48.808;9.006;2024-03-08T04:17:41;96746.88;;;4.61;71.91
41703;BME280;861;48.808;9.006;2024-03-08T04:20:08;96739.44;;;4.73;71.65
41703;BME280;861;48.808;9.006;2024-03-08T04:22:39;96738.78;;;4.80;71.00
41703;BME280;861;48.808;9.006;2024-03-08T04:25:06;96735.53;;;4.71;71.57
41703;BME280;861;48.808;9.006;2024-03-08T04:27:35;96735.88;;;4.50;72.12
41703;BME280;861;48.808;9.006;2024-03-08T04:30:03;96737.16;;;4.56;72.09
41703;BME280;861;48.808;9.006;2024-03-08T04:32:30;96731.41;;;4.77;71.47
41703;BME280;861;48.808;9.006;2024-03-08T04:34:58;96735.19;;;4.92;70.96
41703;BME280;861;48.808;9.006;2024-03-08T04:37:27;96737.09;;;4.91;70.65
41703;BME280;861;48.808;9.006;2024-03-08T04:39:56;96733.31;;;4.96;70.24
41703;BME280;861;48.808;9.006;2024-03-08T04:42:24;96733.47;;;5.03;70.17
41703;BME280;861;48.808;9.006;2024-03-08T04:44:51;96730.81;;;5.06;70.29
41703;BME280;861;48.808;9.006;2024-03-08T04:47:20;96724.66;;;5.06;69.80
41703;BME280;861;48.808;9.006;2024-03-08T04:49:46;96714.50;;;4.99;69.99
41703;BME280;861;48.808;9.006;2024-03-08T04:52:13;96722.53;;;4.96;70.33
41703;BME280;861;48.808;9.006;2024-03-08T04:54:39;96721.47;;;5.00;70.30
41703;BME280;861;48.808;9.006;2024-03-08T04:57:06;96718.84;;;4.85;70.63
41703;BME280;861;48.808;9.006;2024-03-08T04:59:33;96725.31;;;4.99;70.37
41703;BME280;861;48.808;9.006;2024-03-08T05:02:00;96721.38;;;4.97;69.75
41703;BME280;861;48.808;9.006;2024-03-08T05:04:26;96719.63;;;4.85;70.46
41703;BME280;861;48.808;9.006;2024-03-08T05:06:53;96716.41;;;4.99;69.91
41703;BME280;861;48.808;9.006;2024-03-08T05:09:19;96714.09;;;4.97;69.96
41703;BME280;861;48.808;9.006;2024-03-08T05:11:47;96712.88;;;4.95;69.59
41703;BME280;861;48.808;9.006;2024-03-08T05:14:15;96712.81;;;4.91;69.94
41703;BME280;861;48.808;9.006;2024-03-08T05:16:47;96710.84;;;4.88;70.08
41703;BME280;861;48.808;9.006;2024-03-08T05:19:21;96717.50;;;4.75;70.35
41703;BME280;861;48.808;9.006;2024-03-08T05:21:49;96714.66;;;4.68;70.76
41703;BME280;861;48.808;9.006;2024-03-08T05:24:17;96707.34;;;4.88;70.14
41703;BME280;861;48.808;9.006;2024-03-08T05:26:45;96723.00;;;5.01;69.76
41703;BME280;861;48.808;9.006;2024-03-08T05:29:14;96709.88;;;5.00;69.62
41703;BME280;861;48.808;9.006;2024-03-08T05:31:48;96707.34;;;4.88;70.15
41703;BME280;861;48.808;9.006;2024-03-08T05:34:17;96711.75;;;4.77;70.65
41703;BME280;861;48.808;9.006;2024-03-08T05:36:45;96705.91;;;4.74;70.62
41703;BME280;861;48.808;9.006;2024-03-08T05:39:17;96702.16;;;4.79;70.56
41703;BME280;861;48.808;9.006;2024-03-08T05:41:45;96701.78;;;5.00;69.93
41703;BME280;861;48.808;9.006;2024-03-08T05:44:13;96706.28;;;4.92;70.17
41703;BME280;861;48.808;9.006;2024-03-08T05:46:40;96703.09;;;4.87;70.71
41703;BME280;861;48.808;9.006;2024-03-08T05:49:08;96706.50;;;4.84;70.61
41703;BME280;861;48.808;9.006;2024-03-08T05:51:38;96702.50;;;4.78;70.76
41703;BME280;861;48.808;9.006;2024-03-08T05:54:10;96704.56;;;4.84;70.43
41703;BME280;861;48.808;9.006;2024-03-08T05:56:39;96705.84;;;4.90;69.88
41703;BME280;861;48.808;9.006;2024-03-08T05:59:11;96700.81;;;4.89;70.54
41703;BME280;861;48.808;9.006;2024-03-08T06:01:37;96705.81;;;4.67;71.25
41703;BME280;861;48.808;9.006;2024-03-08T06:04:06;96698.47;;;4.68;71.17
41703;BME280;861;48.808;9.006;2024-03-08T06:06:33;96696.28;;;4.54;71.40
41703;BME280;861;48.808;9.006;2024-03-08T06:09:00;96698.41;;;4.64;71.58
41703;BME280;861;48.808;9.006;2024-03-08T06:11:27;96697.91;;;4.78;71.15
41703;BME280;861;48.808;9.006;2024-03-08T06:13:54;96699.97;;;4.65;71.49
41703;BME280;861;48.808;9.006;2024-03-08T06:16:26;96704.94;;;4.83;71.08
41703;BME280;861;48.808;9.006;2024-03-08T06:18:59;96696.34;;;4.96;70.48
41703;BME280;861;48.808;9.006;2024-03-08T06:21:28;96705.28;;;5.00;71.01
41703;BME280;861;48.808;9.006;2024-03-08T06:23:55;96708.03;;;5.04;70.59
41703;BME280;861;48.808;9.006;2024-03-08T06:26:24;96702.44;;;4.93;70.86
41703;BME280;861;48.808;9.006;2024-03-08T06:28:51;96699.59;;;5.05;70.51
41703;BME280;861;48.808;9.006;2024-03-08T06:31:18;96703.84;;;4.87;70.90
41703;BME280;861;48.808;9.006;2024-03-08T06:33:46;96706.19;;;5.08;70.74
41703;BME280;861;48.808;9.006;2024-03-08T06:36:17;96703.16;;;5.32;69.50
41703;BME280;861;48.808;9.006;2024-03-08T06:38:51;96702.13;;;5.40;69.26
41703;BME280;861;48.808;9.006;2024-03-08T06:41:20;96708.47;;;5.28;69.87
41703;BME280;861;48.808;9.006;2024-03-08T06:43:48;96700.31;;;5.25;70.36
41703;BME280;861;48.808;9.006;2024-03-08T06:46:18;96700.81;;;5.30;70.05
41703;BME280;861;48.808;9.006;2024-03-08T06:48:46;96700.34;;;5.47;69.23
41703;BME280;861;48.808;9.006;2024-03-08T06:51:13;96703.25;;;5.61;68.77
41703;BME280;861;48.808;9.006;2024-03-08T06:53:40;96701.75;;;5.19;70.11
41703;BME280;861;48.808;9.006;2024-03-08T06:56:07;96698.44;;;5.06;70.81
41703;BME280;861;48.808;9.006;2024-03-08T06:58:34;96703.88;;;5.29;70.90
41703;BME280;861;48.808;9.006;2024-03-08T07:01:00;96696.09;;;5.46;69.84
41703;BME280;861;48.808;9.006;2024-03-08T07:03:30;96696.63;;;5.55;69.90
41703;BME280;861;48.808;9.006;2024-03-08T07:05:58;96693.19;;;5.36;70.23
41703;BME280;861;48.808;9.006;2024-03-08T07:08:25;96697.47;;;5.59;69.84
41703;BME280;861;48.808;9.006;2024-03-08T07:10:54;96688.81;;;5.50;70.03
41703;BME280;861;48.808;9.006;2024-03-08T07:13:21;96687.97;;;5.46;70.82
41703;BME280;861;48.808;9.006;2024-03-08T07:15:47;96696.53;;;5.07;71.13
41703;BME280;861;48.808;9.006;2024-03-08T07:18:14;96691.31;;;4.76;73.00
41703;BME280;861;48.808;9.006;2024-03-08T07:20:42;96692.38;;;4.52;74.32
41703;BME280;861;48.808;9.006;2024-03-08T07:23:09;96693.88;;;4.68;73.81
41703;BME280;861;48.808;9.006;2024-03-08T07:25:38;96683.97;;;5.37;72.03
41703;BME280;861;48.808;9.006;2024-03-08T07:28:05;96683.00;;;5.48;71.48
41703;BME280;861;48.808;9.006;2024-03-08T07:30:33;96683.59;;;5.61;71.43
41703;BME280;861;48.808;9.006;2024-03-08T07:33:26;96678.72;;;5.70;71.02
41703;BME280;861;48.808;9.006;2024-03-08T07:35:53;96679.16;;;5.72;71.22
41703;BME280;861;48.808;9.006;2024-03-08T07:38:20;96676.75;;;5.67;70.92
41703;BME280;861;48.808;9.006;2024-03-08T07:40:47;96686.50;;;5.97;71.17
41703;BME280;861;48.808;9.006;2024-03-08T07:43:14;96674.69;;;6.09;69.77
41703;BME280;861;48.808;9.006;2024-03-08T07:45:41;96684.78;;;5.86;70.69
41703;BME280;861;48.808;9.006;2024-03-08T07:48:08;96676.63;;;5.15;73.51
41703;BME280;861;48.808;9.006;2024-03-08T07:50:39;96674.16;;;5.74;71.72
41703;BME280;861;48.808;9.006;2024-03-08T07:53:07;96670.41;;;6.04;70.12
41703;BME280;861;48.808;9.006;2024-03-08T07:55:35;96666.91;;;6.04;70.66
41703;BME280;861;48.808;9.006;2024-03-08T07:58:03;96664.50;;;6.25;70.04
41703;BME280;861;48.808;9.006;2024-03-08T08:00:31;96663.72;;;6.54;69.16
41703;BME280;861;48.808;9.006;2024-03-08T08:02:58;96663.78;;;6.28;69.63
41703;BME280;861;48.808;9.006;2024-03-08T08:05:25;96665.13;;;5.40;71.25
41703;BME280;861;48.808;9.006;2024-03-08T08:07:52;96664.44;;;5.69;70.61
41703;BME280;861;48.808;9.006;2024-03-08T08:10:19;96661.88;;;5.54;70.95
41703;BME280;861;48.808;9.006;2024-03-08T08:12:51;96661.78;;;5.24;70.94
41703;BME280;861;48.808;9.006;2024-03-08T08:15:18;96666.06;;;4.84;72.79
41703;BME280;861;48.808;9.006;2024-03-08T08:17:45;96665.94;;;4.99;72.64
41703;BME280;861;48.808;9.006;2024-03-08T08:20:14;96658.50;;;5.38;71.65
41703;BME280;861;48.808;9.006;2024-03-08T08:22:42;96657.78;;;5.63;70.67
41703;BME280;861;48.808;9.006;2024-03-08T08:25:11;96658.59;;;5.41;71.95
41703;BME280;861;48.808;9.006;2024-03-08T08:27:42;96647.78;;;5.64;71.53
41703;BME280;861;48.808;9.006;2024-03-08T08:30:09;96645.72;;;5.57;71.36
41703;BME280;861;48.808;9.006;2024-03-08T08:32:38;96651.19;;;5.16;71.51
41703;BME280;861;48.808;9.006;2024-03-08T08:35:13;96647.34;;;5.39;71.89
41703;BME280;861;48.808;9.006;2024-03-08T08:37:40;96639.97;;;5.59;73.17
41703;BME280;861;48.808;9.006;2024-03-08T08:40:08;96643.13;;;5.38;71.69
41703;BME280;861;48.808;9.006;2024-03-08T08:42:41;96651.16;;;5.35;72.51
41703;BME280;861;48.808;9.006;2024-03-08T08:45:08;96653.72;;;5.05;72.47
41703;BME280;861;48.808;9.006;2024-03-08T08:47:36;96641.78;;;5.29;72.18
41703;BME280;861;48.808;9.006;2024-03-08T08:50:04;96644.78;;;5.24;72.72
41703;BME280;861;48.808;9.006;2024-03-08T08:52:32;96634.81;;;5.50;70.57
41703;BME280;861;48.808;9.006;2024-03-08T08:54:59;96641.72;;;5.74;71.01
41703;BME280;861;48.808;9.006;2024-03-08T08:57:25;96640.59;;;5.75;70.38
41703;BME280;861;48.808;9.006;2024-03-08T08:59:53;96634.78;;;5.73;70.77
41703;BME280;861;48.808;9.006;2024-03-08T09:02:20;96643.19;;;5.68;70.52
41703;BME280;861;48.808;9.006;2024-03-08T09:04:47;96640.16;;;5.47;71.55
41703;BME280;861;48.808;9.006;2024-03-08T09:07:14;96635.81;;;5.39;71.31
41703;BME280;861;48.808;9.006;2024-03-08T09:09:43;96622.97;;;5.58;71.25
41703;BME280;861;48.808;9.006;2024-03-08T09:12:10;96624.94;;;5.61;71.71
41703;BME280;861;48.808;9.006;2024-03-08T09:14:41;96627.72;;;5.42;71.57
41703;BME280;861;48.808;9.006;2024-03-08T09:17:09;96622.00;;;5.92;71.08
41703;BME280;861;48.808;9.006;2024-03-08T09:19:36;96622.66;;;5.86;71.31
41703;BME280;861;48.808;9.006;2024-03-08T09:22:04;96617.81;;;5.98;70.90
41703;BME280;861;48.808;9.006;2024-03-08T09:24:30;96615.50;;;6.00;70.32
41703;BME280;861;48.808;9.006;2024-03-08T09:26:58;96616.78;;;6.10;70.69
41703;BME280;861;48.808;9.006;2024-03-08T09:29:25;96619.69;;;6.24;68.50
41703;BME280;861;48.808;9.006;2024-03-08T09:31:52;96618.28;;;5.78;70.41
41703;BME280;861;48.808;9.006;2024-03-08T09:34:19;96612.44;;;5.76;70.31
41703;BME280;861;48.808;9.006;2024-03-08T09:36:45;96610.88;;;6.01;70.32
41703;BME280;861;48.808;9.006;2024-03-08T09:39:12;96613.88;;;5.92;70.32
41703;BME280;861;48.808;9.006;2024-03-08T09:41:44;96603.69;;;5.82;70.30
41703;BME280;861;48.808;9.006;2024-03-08T09:44:11;96596.59;;;6.00;70.49
41703;BME280;861;48.808;9.006;2024-03-08T09:46:38;96610.44;;;5.95;69.36
41703;BME280;861;48.808;9.006;2024-03-08T09:49:05;96599.47;;;5.85;70.17
41703;BME280;861;48.808;9.006;2024-03-08T09:51:35;96612.81;;;6.00;70.83
41703;BME280;861;48.808;9.006;2024-03-08T09:54:03;96598.94;;;6.02;69.83
41703;BME280;861;48.808;9.006;2024-03-08T09:56:33;96598.63;;;6.37;69.29
41703;BME280;861;48.808;9.006;2024-03-08T09:59:01;96598.53;;;6.30;68.36
41703;BME280;861;48.808;9.006;2024-03-08T10:01:38;96591.84;;;6.20;69.77
41703;BME280;861;48.808;9.006;2024-03-08T10:04:06;96590.03;;;6.31;69.95
41703;BME280;861;48.808;9.006;2024-03-08T10:06:32;96595.84;;;6.00;70.67
41703;BME280;861;48.808;9.006;2024-03-08T10:08:59;96590.28;;;6.19;69.90
41703;BME280;861;48.808;9.006;2024-03-08T10:11:26;96582.78;;;6.39;69.49
41703;BME280;861;48.808;9.006;2024-03-08T10:13:53;96581.44;;;6.22;69.78
41703;BME280;861;48.808;9.006;2024-03-08T10:16:21;96586.16;;;6.29;69.88
41703;BME280;861;48.808;9.006;2024-03-08T10:18:50;96582.94;;;6.19;70.31
41703;BME280;861;48.808;9.006;2024-03-08T10:21:18;96578.59;;;6.41;70.09
41703;BME280;861;48.808;9.006;2024-03-08T10:23:45;96568.34;;;6.61;68.85
41703;BME280;861;48.808;9.006;2024-03-08T10:26:17;96569.00;;;6.84;68.87
41703;BME280;861;48.808;9.006;2024-03-08T10:28:48;96567.69;;;6.71;68.51
41703;BME280;861;48.808;9.006;2024-03-08T10:31:17;96558.78;;;6.70;69.10
41703;BME280;861;48.808;9.006;2024-03-08T10:33:46;96565.03;;;6.74;67.77
41703;BME280;861;48.808;9.006;2024-03-08T10:36:14;96566.50;;;6.68;69.08
41703;BME280;861;48.808;9.006;2024-03-08T10:38:44;96561.31;;;6.53;68.24
41703;BME280;861;48.808;9.006;2024-03-08T10:41:14;96554.63;;;6.80;69.20
41703;BME280;861;48.808;9.006;2024-03-08T10:44:10;96545.63;;;7.12;67.93
41703;BME280;861;48.808;9.006;2024-03-08T10:47:03;96548.28;;;6.62;68.49
41703;BME280;861;48.808;9.006;2024-03-08T10:50:17;96549.38;;;6.97;68.62
41703;BME280;861;48.808;9.006;2024-03-08T10:52:52;96546.59;;;7.34;68.03
41703;BME280;861;48.808;9.006;2024-03-08T10:55:20;96542.13;;;7.08;68.12
41703;BME280;861;48.808;9.006;2024-03-08T10:57:48;96549.09;;;7.06;67.87
41703;BME280;861;48.808;9.006;2024-03-08T11:00:15;96546.13;;;6.81;67.71
41703;BME280;861;48.808;9.006;2024-03-08T11:02:46;96543.78;;;6.76;68.33
41703;BME280;861;48.808;9.006;2024-03-08T11:05:39;96539.00;;;7.06;67.87
41703;BME280;861;48.808;9.006;2024-03-08T11:08:19;96532.91;;;7.70;66.37
41703;BME280;861;48.808;9.006;2024-03-08T11:10:54;96540.84;;;7.39;66.65
41703;BME280;861;48.808;9.006;2024-03-08T11:13:42;96537.78;;;7.47;66.71
41703;BME280;861;48.808;9.006;2024-03-08T11:19:23;96528.34;;;7.89;66.53
41703;BME280;861;48.808;9.006;2024-03-08T11:22:04;96530.00;;;8.14;65.33
41703;BME280;861;48.808;9.006;2024-03-08T11:24:40;96525.50;;;8.43;65.29
41703;BME280;861;48.808;9.006;2024-03-08T11:27:08;96530.03;;;8.21;65.12
41703;BME280;861;48.808;9.006;2024-03-08T11:29:37;96524.72;;;8.53;64.32
41703;BME280;861;48.808;9.006;2024-03-08T11:32:15;96530.06;;;8.25;65.13
41703;BME280;861;48.808;9.006;2024-03-08T11:34:48;96514.09;;;8.09;65.57
41703;BME280;861;48.808;9.006;2024-03-08T11:37:21;96527.66;;;8.09;65.14
41703;BME280;861;48.808;9.006;2024-03-08T11:39:53;96522.53;;;7.83;65.32
41703;BME280;861;48.808;9.006;2024-03-08T11:42:26;96508.34;;;7.42;65.45
41703;BME280;861;48.808;9.006;2024-03-08T11:44:53;96514.38;;;7.22;67.03
41703;BME280;861;48.808;9.006;2024-03-08T11:47:21;96500.84;;;7.90;66.50
41703;BME280;861;48.808;9.006;2024-03-08T11:49:48;96504.94;;;8.45;66.24
41703;BME280;861;48.808;9.006;2024-03-08T11:52:17;96491.03;;;9.38;63.30
41703;BME280;861;48.808;9.006;2024-03-08T11:54:55;96487.47;;;9.73;61.33
41703;BME280;861;48.808;9.006;2024-03-08T11:57:25;96475.00;;;9.89;61.15
41703;BME280;861;48.808;9.006;2024-03-08T11:59:53;96469.38;;;10.31;60.67
41703;BME280;861;48.808;9.006;2024-03-08T12:02:21;96469.81;;;10.84;59.56
41703;BME280;861;48.808;9.006;2024-03-08T12:04:55;96466.34;;;11.28;59.64
41703;BME280;861;48.808;9.006;2024-03-08T12:07:26;96461.28;;;11.27;56.60
41703;BME280;861;48.808;9.006;2024-03-08T12:10:20;96458.13;;;11.72;57.77
41703;BME280;861;48.808;9.006;2024-03-08T12:12:53;96444.47;;;12.06;57.03
41703;BME280;861;48.808;9.006;2024-03-08T12:15:25;96445.09;;;12.17;55.60
41703;BME280;861;48.808;9.006;2024-03-08T12:17:55;96444.78;;;12.68;56.12
41703;BME280;861;48.808;9.006;2024-03-08T12:20:24;96436.19;;;12.93;54.27
41703;BME280;861;48.808;9.006;2024-03-08T12:22:54;96430.53;;;13.07;54.93
41703;BME280;861;48.808;9.006;2024-03-08T12:25:42;96431.50;;;13.20;54.30
41703;BME280;861;48.808;9.006;2024-03-08T12:28:14;96425.28;;;13.39;53.95
41703;BME280;861;48.808;9.006;2024-03-08T12:30:52;96417.34;;;13.67;53.75
41703;BME280;861;48.808;9.006;2024-03-08T12:33:21;96423.81;;;13.11;53.69
41703;BME280;861;48.808;9.006;2024-03-08T12:35:53;96422.81;;;13.25;53.44
41703;BME280;861;48.808;9.006;2024-03-08T12:38:23;96416.19;;;13.45;52.71
41703;BME280;861;48.808;9.006;2024-03-08T12:40:59;96419.03;;;13.38;51.49
41703;BME280;861;48.808;9.006;2024-03-08T12:43:26;96417.97;;;12.86;52.39
41703;BME280;861;48.808;9.006;2024-03-08T12:45:56;96409.28;;;12.91;52.38
41703;BME280;861;48.808;9.006;2024-03-08T12:48:23;96411.09;;;13.24;53.68
41703;BME280;861;48.808;9.006;2024-03-08T12:50:51;96399.84;;;12.96;53.50
41703;BME280;861;48.808;9.006;2024-03-08T12:53:18;96399.97;;;12.89;53.52
41703;BME280;861;48.808;9.006;2024-03-08T12:55:45;96398.22;;;13.44;53.00
41703;BME280;861;48.808;9.006;2024-03-08T12:58:11;96389.28;;;13.83;52.68
41703;BME280;861;48.808;9.006;2024-03-08T13:00:38;96380.47;;;13.92;51.97
41703;BME280;861;48.808;9.006;2024-03-08T13:03:09;96373.22;;;13.85;51.65
41703;BME280;861;48.808;9.006;2024-03-08T13:05:38;96373.13;;;13.88;51.49
41703;BME280;861;48.808;9.006;2024-03-08T13:08:09;96375.47;;;14.06;51.06
41703;BME280;861;48.808;9.006;2024-03-08T13:10:43;96364.56;;;14.22;50.10
41703;BME280;861;48.808;9.006;2024-03-08T13:13:13;96367.94;;;13.74;50.99
41703;BME280;861;48.808;9.006;2024-03-08T13:15:43;96358.47;;;14.50;50.19
41703;BME280;861;48.808;9.006;2024-03-08T13:18:09;96353.41;;;14.33;49.77
41703;BME280;861;48.808;9.006;2024-03-08T13:20:36;96347.25;;;14.61;50.51
41703;BME280;861;48.808;9.006;2024-03-08T13:23:08;96348.53;;;14.72;50.07
41703;BME280;861;48.808;9.006;2024-03-08T13:25:34;96343.66;;;14.96;48.25
41703;BME280;861;48.808;9.006;2024-03-08T13:28:05;96342.91;;;14.47;48.86
41703;BME280;861;48.808;9.006;2024-03-08T13:30:33;96334.50;;;14.86;48.70
41703;BME280;861;48.808;9.006;2024-03-08T13:32:59;96331.66;;;15.06;49.68
41703;BME280;861;48.808;9.006;2024-03-08T13:35:26;96317.06;;;15.38;48.76
41703;BME280;861;48.808;9.006;2024-03-08T13:37:54;96314.84;;;15.32;47.95
41703;BME280;861;48.808;9.006;2024-03-08T13:40:21;96319.22;;;15.46;49.07
41703;BME280;861;48.808;9.006;2024-03-08T13:42:49;96321.22;;;15.58;48.21
41703;BME280;861;48.808;9.006;2024-03-08T13:45:16;96317.38;;;15.56;47.38